createdAt,value
2022-09-22T00:03:56.914Z,94.05
2022-09-22T00:09:00.824Z,93.87
2022-09-22T00:14:06.721Z,93.96
2022-09-22T00:19:13.442Z,94.12
2022-09-22T00:24:16.656Z,94.26
2022-09-22T00:29:20.322Z,94.59
2022-09-22T00:34:24.396Z,94.90
2022-09-22T00:39:26.064Z,94.85
2022-09-22T00:44:35.511Z,95.15
2022-09-22T00:49:44.499Z,95.78
2022-09-22T00:54:47.746Z,96.06
2022-09-22T00:59:52.525Z,95.95
2022-09-22T01:04:54.614Z,96.36
2022-09-22T01:09:57.781Z,96.62
2022-09-22T01:15:14.813Z,96.44
2022-09-22T01:20:48.021Z,96.12
2022-09-22T01:26:25.075Z,96.54
2022-09-22T01:31:34.969Z,96.97
2022-09-22T01:36:41.601Z,96.90
2022-09-22T01:41:50.507Z,97.19
2022-09-22T01:46:57.913Z,97.27
2022-09-22T01:52:06.354Z,97.17
2022-09-22T01:57:16.771Z,97.72
2022-09-22T02:02:27.308Z,97.69
2022-09-22T02:07:33.931Z,97.31
2022-09-22T02:12:36.153Z,97.72
2022-09-22T02:17:39.761Z,97.65
2022-09-22T02:22:41.970Z,97.98
2022-09-22T02:27:46.686Z,97.69
2022-09-22T02:32:52.957Z,97.30
2022-09-22T02:38:02.760Z,97.33
2022-09-22T02:43:10.955Z,97.64
2022-09-22T02:48:20.005Z,98.33
2022-09-22T02:53:22.189Z,97.51
2022-09-22T02:58:24.331Z,97.78
2022-09-22T03:03:27.657Z,97.92
2022-09-22T03:08:29.319Z,98.45
2022-09-22T03:13:30.958Z,98.50
2022-09-22T03:18:34.258Z,97.92
2022-09-22T03:23:36.520Z,98.13
2022-09-22T03:28:38.573Z,98.95
2022-09-22T03:33:41.929Z,98.49
2022-09-22T03:38:43.809Z,97.93
2022-09-22T03:43:45.935Z,98.13
2022-09-22T03:48:49.159Z,97.99
2022-09-22T03:53:51.129Z,98.15
2022-09-22T03:58:53.122Z,97.73
2022-09-22T04:03:56.469Z,98.10
2022-09-22T04:08:58.474Z,98.49
2022-09-22T04:14:00.159Z,97.90
2022-09-22T04:19:03.899Z,98.42
2022-09-22T04:24:06.522Z,98.22
2022-09-22T04:29:08.631Z,98.57
2022-09-22T04:34:12.206Z,98.30
2022-09-22T04:39:14.153Z,97.48
2022-09-22T04:44:16.120Z,97.44
2022-09-22T04:49:19.136Z,97.82
2022-09-22T04:54:21.106Z,97.81
2022-09-22T04:59:22.876Z,98.08
2022-09-22T05:04:25.831Z,97.83
2022-09-22T05:09:27.452Z,97.79
2022-09-22T05:14:29.080Z,97.63
2022-09-22T05:19:32.144Z,97.89
2022-09-22T05:24:34.439Z,97.81
2022-09-22T05:29:35.999Z,97.74
2022-09-22T05:34:39.280Z,97.89
2022-09-22T05:39:40.866Z,97.97
2022-09-22T05:44:42.478Z,97.89
2022-09-22T05:49:46.015Z,98.07
2022-09-22T05:54:48.013Z,98.20
2022-09-22T05:59:49.643Z,98.37
2022-09-22T06:04:53.252Z,98.26
2022-09-22T06:09:55.144Z,98.71
2022-09-22T06:14:56.813Z,99.36
2022-09-22T06:20:00.145Z,99.80
2022-09-22T06:25:02.345Z,98.87
2022-09-22T06:30:04.636Z,98.90
2022-09-22T06:35:08.541Z,98.58
2022-09-22T06:40:15.284Z,98.47
2022-09-22T06:45:18.857Z,98.23
2022-09-22T06:50:21.787Z,97.76
2022-09-22T06:55:23.737Z,97.28
2022-09-22T07:00:25.671Z,96.44
2022-09-22T07:05:28.738Z,94.89
2022-09-22T07:10:30.371Z,92.18
2022-09-22T07:15:32.480Z,90.89
2022-09-22T07:20:35.434Z,88.50
2022-09-22T07:25:37.242Z,88.49
2022-09-22T07:30:39.521Z,87.11
2022-09-22T07:35:42.945Z,86.44
2022-09-22T07:40:54.494Z,84.61
2022-09-22T07:45:56.360Z,84.51
2022-09-22T07:50:59.358Z,83.66
2022-09-22T07:56:07.511Z,82.11
2022-09-22T08:01:10.317Z,81.39
2022-09-22T08:06:16.032Z,79.27
2022-09-22T08:11:19.884Z,80.07
2022-09-22T08:16:23.014Z,79.75
2022-09-22T08:21:27.703Z,79.75
2022-09-22T08:26:29.592Z,78.42
2022-09-22T08:31:32.573Z,76.72
2022-09-22T08:36:37.581Z,75.70
2022-09-22T08:41:49.195Z,75.00
2022-09-22T08:46:53.491Z,73.34
2022-09-22T08:52:03.284Z,69.37
2022-09-22T08:57:27.650Z,70.38
2022-09-22T09:02:38.219Z,67.51
2022-09-22T09:07:50.038Z,66.74
2022-09-22T09:13:10.054Z,68.55
2022-09-22T09:18:16.230Z,69.27
2022-09-22T09:25:21.868Z,68.59
2022-09-22T09:28:50.582Z,69.32
2022-09-22T09:33:57.679Z,63.68
2022-09-22T09:39:13.268Z,44.43
2022-09-22T09:44:20.333Z,48.82
2022-09-22T09:49:22.754Z,44.71
2022-09-22T09:54:27.031Z,39.91
2022-09-22T09:59:29.372Z,39.11
2022-09-22T10:04:34.098Z,40.01
2022-09-22T10:09:37.248Z,42.64
2022-09-22T10:14:39.087Z,34.03
2022-09-22T10:19:40.830Z,31.46
2022-09-22T10:24:53.767Z,30.48
2022-09-22T10:30:22.142Z,29.58
2022-09-22T10:35:28.495Z,29.03
2022-09-22T10:40:31.706Z,27.98
2022-09-22T10:45:42.112Z,29.08
2022-09-22T10:50:55.516Z,29.77
2022-09-22T10:56:07.639Z,28.17
2022-09-22T11:01:29.280Z,32.94
2022-09-22T11:06:43.142Z,39.01
2022-09-22T11:11:53.539Z,41.11
2022-09-22T11:17:10.751Z,42.98
2022-09-22T11:22:26.345Z,43.29
2022-09-22T11:27:45.982Z,43.07
2022-09-22T11:33:21.843Z,45.30
2022-09-22T11:39:05.261Z,46.15
2022-09-22T11:44:34.289Z,42.74
2022-09-22T11:49:54.176Z,45.06
2022-09-22T11:55:20.547Z,43.52
2022-09-22T12:00:25.890Z,46.56
2022-09-22T12:05:31.991Z,47.63
2022-09-22T12:10:35.541Z,49.60
2022-09-22T12:15:45.068Z,50.12
2022-09-22T12:20:57.547Z,48.16
2022-09-22T12:26:04.098Z,49.00
2022-09-22T12:31:09.343Z,50.07
2022-09-22T12:36:11.368Z,51.58
2022-09-22T12:41:18.675Z,51.85
2022-09-22T12:46:26.017Z,47.97
2022-09-22T12:51:32.668Z,47.44
2022-09-22T12:56:45.574Z,46.62
2022-09-22T13:02:26.822Z,44.99
2022-09-22T13:07:35.045Z,40.58
2022-09-22T13:12:36.703Z,43.43
2022-09-22T13:17:45.143Z,43.77
2022-09-22T13:22:46.907Z,46.16
2022-09-22T13:27:49.083Z,47.81
2022-09-22T13:32:54.362Z,46.30
2022-09-22T13:38:00.038Z,46.28
2022-09-22T13:43:10.179Z,47.60
2022-09-22T13:48:16.939Z,49.55
2022-09-22T13:53:21.013Z,50.59
2022-09-22T13:58:29.012Z,50.62
2022-09-22T14:03:36.998Z,53.71
2022-09-22T14:08:39.558Z,53.64
2022-09-22T14:13:44.452Z,53.88
2022-09-22T14:18:50.703Z,56.76
2022-09-22T14:23:52.962Z,58.35
2022-09-22T14:28:56.558Z,58.74
2022-09-22T14:34:02.148Z,60.02
2022-09-22T14:39:09.938Z,57.25
2022-09-22T14:44:35.457Z,57.07
2022-09-22T14:49:40.939Z,58.25
2022-09-22T14:54:43.629Z,59.30
2022-09-22T14:59:49.535Z,60.80
2022-09-22T15:04:52.996Z,62.02
2022-09-22T15:09:57.769Z,63.17
2022-09-22T15:14:59.904Z,64.53
2022-09-22T15:20:03.335Z,65.94
2022-09-22T15:25:05.900Z,66.92
2022-09-22T15:30:12.847Z,68.53
2022-09-22T15:35:17.121Z,69.18
2022-09-22T15:40:22.022Z,70.14
2022-09-22T15:45:23.941Z,71.11
2022-09-22T15:50:29.228Z,74.25
2022-09-22T15:55:31.022Z,74.17
2022-09-22T16:00:33.203Z,74.72
2022-09-22T16:05:36.171Z,76.05
2022-09-22T16:10:38.411Z,76.37
2022-09-22T16:15:40.418Z,76.86
2022-09-22T16:20:43.381Z,77.18
2022-09-22T16:25:45.327Z,77.49
2022-09-22T16:30:47.572Z,79.36
2022-09-22T16:35:51.950Z,80.47
2022-09-22T16:41:00.549Z,80.41
2022-09-22T16:46:02.518Z,80.91
2022-09-22T16:51:06.105Z,82.24
2022-09-22T16:56:08.269Z,83.15
2022-09-22T17:01:10.510Z,84.11
2022-09-22T17:06:15.519Z,84.68
2022-09-22T17:11:18.218Z,84.97
2022-09-22T17:16:22.894Z,85.84
2022-09-22T17:21:29.303Z,86.66
2022-09-22T17:26:36.609Z,87.63
2022-09-22T17:31:38.659Z,87.97
2022-09-22T17:36:41.716Z,88.65
2022-09-22T17:41:44.501Z,89.50
2022-09-22T17:46:46.667Z,90.73
2022-09-22T17:51:50.517Z,90.57
2022-09-22T17:56:52.126Z,91.22
2022-09-22T18:01:54.126Z,91.47
2022-09-22T18:06:57.913Z,91.55
2022-09-22T18:12:00.203Z,91.82
2022-09-22T18:17:01.861Z,91.96
2022-09-22T18:22:06.225Z,92.71
2022-09-22T18:27:07.863Z,92.56
2022-09-22T18:32:09.654Z,93.18
2022-09-22T18:37:13.091Z,92.95
2022-09-22T18:42:15.056Z,93.70
2022-09-22T18:47:18.962Z,93.71
2022-09-22T18:52:22.410Z,93.79
2022-09-22T18:57:24.429Z,94.39
2022-09-22T19:02:26.483Z,93.97
2022-09-22T19:07:30.199Z,94.20
2022-09-22T19:12:31.822Z,94.21
2022-09-22T19:17:33.473Z,94.51
2022-09-22T19:22:36.772Z,94.66
2022-09-22T19:27:38.933Z,94.85
2022-09-22T19:32:41.715Z,94.96
2022-09-22T19:37:44.950Z,95.03
2022-09-22T19:42:47.272Z,94.96
2022-09-22T19:47:49.024Z,95.30
2022-09-22T19:52:52.532Z,95.51
2022-09-22T19:57:54.440Z,95.34
2022-09-22T20:02:57.314Z,95.39
2022-09-22T20:08:00.678Z,95.67
2022-09-22T20:13:03.531Z,95.75
2022-09-22T20:18:05.399Z,95.91
2022-09-22T20:23:09.627Z,95.93
2022-09-22T20:28:11.307Z,95.97
2022-09-22T20:33:18.626Z,95.59
2022-09-22T20:38:21.787Z,95.90
2022-09-22T20:43:23.675Z,95.72
2022-09-22T20:48:25.327Z,95.82
2022-09-22T20:53:28.360Z,96.19
2022-09-22T20:58:31.311Z,95.92
2022-09-22T21:03:33.062Z,95.91
2022-09-22T21:08:39.470Z,95.86
2022-09-22T21:13:41.722Z,96.23
2022-09-22T21:18:43.976Z,96.16
2022-09-22T21:23:47.166Z,96.45
2022-09-22T21:28:50.711Z,96.25
2022-09-22T21:33:52.816Z,96.67
2022-09-22T21:38:58.029Z,96.65
2022-09-22T21:44:00.499Z,96.33
2022-09-22T21:49:04.712Z,96.45
2022-09-22T21:54:11.285Z,96.26
2022-09-22T21:59:14.307Z,96.38
2022-09-22T22:04:16.572Z,96.51
2022-09-22T22:09:22.169Z,96.48
2022-09-22T22:14:26.122Z,96.15
2022-09-22T22:19:27.789Z,96.51
2022-09-22T22:24:31.268Z,96.72
2022-09-22T22:29:34.448Z,97.00
2022-09-22T22:34:36.762Z,96.70
2022-09-22T22:39:40.070Z,96.48
2022-09-22T22:44:42.299Z,96.60
2022-09-22T22:49:44.212Z,96.97
2022-09-22T22:54:47.480Z,97.08
2022-09-22T22:59:49.340Z,96.90
2022-09-22T23:04:51.709Z,96.94
2022-09-22T23:09:54.814Z,97.49
2022-09-22T23:14:56.735Z,97.18
2022-09-22T23:19:58.750Z,97.13
2022-09-22T23:25:02.276Z,96.99
2022-09-22T23:30:04.699Z,97.07
2022-09-22T23:35:07.458Z,97.40
2022-09-22T23:40:11.441Z,96.74
2022-09-22T23:45:13.638Z,97.17
2022-09-22T23:50:15.767Z,97.53
2022-09-22T23:55:19.187Z,97.04
